sensor_id;sensor_type;location;lat;lon;timestamp;P1;durP1;ratioP1;P2;durP2;ratioP2
22017;SDS011;11173;51.050;7.108;2023-02-05T00:07:26;13.98;;;7.18;;
22017;SDS011;11173;51.050;7.108;2023-02-05T00:17:27;16.80;;;8.95;;
22017;SDS011;11173;51.050;7.108;2023-02-05T00:27:27;12.23;;;6.60;;
22017;SDS011;11173;51.050;7.108;2023-02-05T00:37:27;12.63;;;8.40;;
22017;SDS011;11173;51.050;7.108;2023-02-05T00:47:28;11.38;;;7.70;;
22017;SDS011;11173;51.050;7.108;2023-02-05T00:57:28;15.75;;;8.13;;
22017;SDS011;11173;51.050;7.108;2023-02-05T01:07:28;13.20;;;7.60;;
22017;SDS011;11173;51.050;7.108;2023-02-05T01:17:29;14.25;;;7.82;;
22017;SDS011;11173;51.050;7.108;2023-02-05T01:27:31;6.90;;;5.53;;
22017;SDS011;11173;51.050;7.108;2023-02-05T01:37:31;3.72;;;3.33;;
22017;SDS011;11173;51.050;7.108;2023-02-05T01:47:31;1.63;;;1.50;;
22017;SDS011;11173;51.050;7.108;2023-02-05T01:57:31;2.28;;;1.00;;
22017;SDS011;11173;51.050;7.108;2023-02-05T02:07:31;0.80;;;0.80;;
22017;SDS011;11173;51.050;7.108;2023-02-05T02:17:33;1.02;;;0.93;;
22017;SDS011;11173;51.050;7.108;2023-02-05T02:37:44;1.75;;;1.10;;
22017;SDS011;11173;51.050;7.108;2023-02-05T02:47:46;4.93;;;2.97;;
22017;SDS011;11173;51.050;7.108;2023-02-05T02:57:48;2.17;;;1.98;;
22017;SDS011;11173;51.050;7.108;2023-02-05T03:07:51;1.85;;;1.70;;
22017;SDS011;11173;51.050;7.108;2023-02-05T03:17:53;2.05;;;1.90;;
22017;SDS011;11173;51.050;7.108;2023-02-05T03:27:54;1.20;;;1.10;;
22017;SDS011;11173;51.050;7.108;2023-02-05T03:48:21;0.93;;;0.90;;
22017;SDS011;11173;51.050;7.108;2023-02-05T03:58:30;1.33;;;1.23;;
22017;SDS011;11173;51.050;7.108;2023-02-05T04:08:31;0.90;;;0.90;;
22017;SDS011;11173;51.050;7.108;2023-02-05T04:18:31;1.30;;;1.20;;
22017;SDS011;11173;51.050;7.108;2023-02-05T04:28:32;1.73;;;1.20;;
22017;SDS011;11173;51.050;7.108;2023-02-05T04:38:32;1.23;;;1.02;;
22017;SDS011;11173;51.050;7.108;2023-02-05T04:48:33;1.88;;;1.15;;
22017;SDS011;11173;51.050;7.108;2023-02-05T04:58:34;0.88;;;0.80;;
22017;SDS011;11173;51.050;7.108;2023-02-05T05:08:34;0.82;;;0.82;;
22017;SDS011;11173;51.050;7.108;2023-02-05T05:18:35;4.35;;;3.30;;
22017;SDS011;11173;51.050;7.108;2023-02-05T05:28:36;10.55;;;6.53;;
22017;SDS011;11173;51.050;7.108;2023-02-05T05:38:36;4.40;;;4.00;;
22017;SDS011;11173;51.050;7.108;2023-02-05T05:48:36;2.55;;;2.17;;
22017;SDS011;11173;51.050;7.108;2023-02-05T05:58:37;3.75;;;3.45;;
22017;SDS011;11173;51.050;7.108;2023-02-05T06:08:37;1.45;;;1.35;;
22017;SDS011;11173;51.050;7.108;2023-02-05T06:18:37;4.20;;;2.47;;
22017;SDS011;11173;51.050;7.108;2023-02-05T06:28:37;15.10;;;9.63;;
22017;SDS011;11173;51.050;7.108;2023-02-05T06:38:38;16.38;;;10.82;;
22017;SDS011;11173;51.050;7.108;2023-02-05T06:48:38;15.57;;;10.82;;
22017;SDS011;11173;51.050;7.108;2023-02-05T06:58:38;9.90;;;7.22;;
22017;SDS011;11173;51.050;7.108;2023-02-05T07:08:38;18.52;;;12.75;;
22017;SDS011;11173;51.050;7.108;2023-02-05T07:18:39;22.80;;;14.82;;
22017;SDS011;11173;51.050;7.108;2023-02-05T07:28:39;21.85;;;15.40;;
22017;SDS011;11173;51.050;7.108;2023-02-05T07:38:39;23.15;;;15.15;;
22017;SDS011;11173;51.050;7.108;2023-02-05T07:48:40;20.88;;;14.75;;
22017;SDS011;11173;51.050;7.108;2023-02-05T07:58:40;22.67;;;15.30;;
22017;SDS011;11173;51.050;7.108;2023-02-05T08:08:41;23.75;;;17.15;;
22017;SDS011;11173;51.050;7.108;2023-02-05T08:18:41;21.85;;;15.68;;
22017;SDS011;11173;51.050;7.108;2023-02-05T08:28:42;18.48;;;13.93;;
22017;SDS011;11173;51.050;7.108;2023-02-05T08:38:42;17.73;;;13.52;;
22017;SDS011;11173;51.050;7.108;2023-02-05T08:48:42;14.40;;;10.18;;
22017;SDS011;11173;51.050;7.108;2023-02-05T08:58:43;15.07;;;12.05;;
22017;SDS011;11173;51.050;7.108;2023-02-05T09:08:43;11.40;;;9.50;;
22017;SDS011;11173;51.050;7.108;2023-02-05T09:18:43;12.60;;;9.20;;
22017;SDS011;11173;51.050;7.108;2023-02-05T09:28:43;3.47;;;3.17;;
22017;SDS011;11173;51.050;7.108;2023-02-05T09:38:44;2.60;;;2.13;;
22017;SDS011;11173;51.050;7.108;2023-02-05T09:58:51;0.80;;;0.80;;
22017;SDS011;11173;51.050;7.108;2023-02-05T10:39:10;1.23;;;0.90;;
22017;SDS011;11173;51.050;7.108;2023-02-05T10:49:14;3.85;;;1.45;;
22017;SDS011;11173;51.050;7.108;2023-02-05T10:59:19;3.50;;;2.13;;
22017;SDS011;11173;51.050;7.108;2023-02-05T11:29:22;2.70;;;2.50;;
22017;SDS011;11173;51.050;7.108;2023-02-05T11:39:27;4.35;;;2.63;;
22017;SDS011;11173;51.050;7.108;2023-02-05T11:49:32;3.40;;;1.92;;
22017;SDS011;11173;51.050;7.108;2023-02-05T11:59:34;3.58;;;1.98;;
22017;SDS011;11173;51.050;7.108;2023-02-05T12:09:34;3.13;;;1.65;;
22017;SDS011;11173;51.050;7.108;2023-02-05T12:19:39;3.33;;;1.52;;
22017;SDS011;11173;51.050;7.108;2023-02-05T12:29:46;6.40;;;1.50;;
22017;SDS011;11173;51.050;7.108;2023-02-05T13:00:02;2.13;;;1.10;;
22017;SDS011;11173;51.050;7.108;2023-02-05T13:10:15;1.50;;;1.08;;
22017;SDS011;11173;51.050;7.108;2023-02-05T13:20:27;1.63;;;1.20;;
22017;SDS011;11173;51.050;7.108;2023-02-05T13:30:49;1.10;;;1.10;;
22017;SDS011;11173;51.050;7.108;2023-02-05T13:40:54;1.48;;;1.10;;
22017;SDS011;11173;51.050;7.108;2023-02-05T14:01:04;3.63;;;1.40;;
22017;SDS011;11173;51.050;7.108;2023-02-05T14:11:05;2.20;;;1.67;;
22017;SDS011;11173;51.050;7.108;2023-02-05T14:31:44;2.20;;;2.10;;
22017;SDS011;11173;51.050;7.108;2023-02-05T14:41:45;5.32;;;2.65;;
22017;SDS011;11173;51.050;7.108;2023-02-05T14:51:53;4.35;;;3.20;;
22017;SDS011;11173;51.050;7.108;2023-02-05T15:01:58;2.67;;;2.47;;
22017;SDS011;11173;51.050;7.108;2023-02-05T15:22:02;2.70;;;1.77;;
22017;SDS011;11173;51.050;7.108;2023-02-05T15:32:14;5.38;;;2.63;;
22017;SDS011;11173;51.050;7.108;2023-02-05T15:42:16;9.23;;;3.00;;
22017;SDS011;11173;51.050;7.108;2023-02-05T15:52:24;2.47;;;2.00;;
22017;SDS011;11173;51.050;7.108;2023-02-05T16:02:26;4.20;;;2.05;;
22017;SDS011;11173;51.050;7.108;2023-02-05T16:12:26;7.25;;;2.40;;
22017;SDS011;11173;51.050;7.108;2023-02-05T16:32:31;3.00;;;1.60;;
22017;SDS011;11173;51.050;7.108;2023-02-05T16:42:39;11.65;;;2.95;;
22017;SDS011;11173;51.050;7.108;2023-02-05T16:52:41;5.83;;;2.93;;
22017;SDS011;11173;51.050;7.108;2023-02-05T17:02:41;6.43;;;2.92;;
22017;SDS011;11173;51.050;7.108;2023-02-05T17:12:46;4.13;;;1.88;;
22017;SDS011;11173;51.050;7.108;2023-02-05T17:32:59;3.60;;;2.20;;
22017;SDS011;11173;51.050;7.108;2023-02-05T17:42:59;5.05;;;3.25;;
22017;SDS011;11173;51.050;7.108;2023-02-05T17:53:00;3.50;;;1.95;;
22017;SDS011;11173;51.050;7.108;2023-02-05T18:03:00;2.15;;;1.77;;
22017;SDS011;11173;51.050;7.108;2023-02-05T18:13:00;3.05;;;2.17;;
22017;SDS011;11173;51.050;7.108;2023-02-05T18:23:01;1.73;;;1.63;;
22017;SDS011;11173;51.050;7.108;2023-02-05T18:33:02;3.30;;;1.65;;
22017;SDS011;11173;51.050;7.108;2023-02-05T18:43:03;5.47;;;2.67;;
22017;SDS011;11173;51.050;7.108;2023-02-05T18:53:03;9.90;;;4.50;;
22017;SDS011;11173;51.050;7.108;2023-02-05T19:03:04;11.60;;;5.93;;
22017;SDS011;11173;51.050;7.108;2023-02-05T19:13:04;5.00;;;3.50;;
22017;SDS011;11173;51.050;7.108;2023-02-05T19:23:04;11.40;;;3.63;;
22017;SDS011;11173;51.050;7.108;2023-02-05T19:33:04;15.30;;;3.35;;
22017;SDS011;11173;51.050;7.108;2023-02-05T19:43:05;15.18;;;4.75;;
22017;SDS011;11173;51.050;7.108;2023-02-05T19:53:05;11.57;;;2.75;;
22017;SDS011;11173;51.050;7.108;2023-02-05T20:03:06;14.25;;;2.97;;
22017;SDS011;11173;51.050;7.108;2023-02-05T20:13:09;7.05;;;2.78;;
22017;SDS011;11173;51.050;7.108;2023-02-05T20:23:10;5.82;;;2.70;;
22017;SDS011;11173;51.050;7.108;2023-02-05T20:33:10;8.52;;;2.70;;
22017;SDS011;11173;51.050;7.108;2023-02-05T20:43:10;10.52;;;2.70;;
22017;SDS011;11173;51.050;7.108;2023-02-05T20:53:10;13.77;;;2.70;;
22017;SDS011;11173;51.050;7.108;2023-02-05T21:03:11;7.70;;;2.30;;
22017;SDS011;11173;51.050;7.108;2023-02-05T21:13:11;7.85;;;2.53;;
22017;SDS011;11173;51.050;7.108;2023-02-05T21:23:11;6.22;;;2.55;;
22017;SDS011;11173;51.050;7.108;2023-02-05T21:33:11;8.35;;;2.35;;
22017;SDS011;11173;51.050;7.108;2023-02-05T21:43:11;10.13;;;3.40;;
22017;SDS011;11173;51.050;7.108;2023-02-05T21:53:12;7.40;;;2.92;;
22017;SDS011;11173;51.050;7.108;2023-02-05T22:03:15;16.02;;;3.80;;
22017;SDS011;11173;51.050;7.108;2023-02-05T22:13:15;18.30;;;3.63;;
22017;SDS011;11173;51.050;7.108;2023-02-05T22:23:16;12.57;;;3.08;;
22017;SDS011;11173;51.050;7.108;2023-02-05T22:33:16;10.77;;;3.10;;
22017;SDS011;11173;51.050;7.108;2023-02-05T22:43:16;12.23;;;3.80;;
22017;SDS011;11173;51.050;7.108;2023-02-05T22:53:17;16.95;;;3.83;;
22017;SDS011;11173;51.050;7.108;2023-02-05T23:03:17;12.60;;;3.72;;
22017;SDS011;11173;51.050;7.108;2023-02-05T23:13:17;7.13;;;2.63;;
22017;SDS011;11173;51.050;7.108;2023-02-05T23:23:17;12.38;;;3.00;;
22017;SDS011;11173;51.050;7.108;2023-02-05T23:33:18;14.55;;;3.05;;
22017;SDS011;11173;51.050;7.108;2023-02-05T23:43:18;17.52;;;3.58;;
22017;SDS011;11173;51.050;7.108;2023-02-05T23:53:19;18.15;;;4.15;;
